createdAt,value
2023-08-19T06:30:40.467Z,30.00
2023-08-19T06:34:43.503Z,22.10
2023-08-19T06:38:50.708Z,21.90
2023-08-19T06:42:53.703Z,22.10
2023-08-19T06:46:59.081Z,22.20
2023-08-19T06:51:02.684Z,22.40
2023-08-19T06:55:06.143Z,22.50
2023-08-19T06:59:12.711Z,22.50
2023-08-19T07:03:19.717Z,22.80
2023-08-19T07:07:22.084Z,22.90
2023-08-19T07:11:25.133Z,23.10
2023-08-19T07:15:28.578Z,23.10
2023-08-19T07:19:38.826Z,23.50
2023-08-19T07:23:41.230Z,23.70
2023-08-19T07:27:44.847Z,23.90
2023-08-19T07:31:48.283Z,24.00
2023-08-19T07:35:53.393Z,24.20
2023-08-19T07:39:55.722Z,24.40
2023-08-19T07:43:57.887Z,24.70
2023-08-19T07:48:00.170Z,25.00
2023-08-19T07:52:05.610Z,25.10
2023-08-19T07:56:08.134Z,25.40
2023-08-19T08:00:10.901Z,25.50
2023-08-19T08:04:13.079Z,25.50
2023-08-19T08:08:17.948Z,25.80
2023-08-19T08:12:20.164Z,26.10
2023-08-19T08:16:22.381Z,26.00
2023-08-19T08:20:24.633Z,26.30
2023-08-19T08:24:29.468Z,26.50
2023-08-19T08:28:31.689Z,26.70
2023-08-19T08:32:34.149Z,26.90
2023-08-19T08:36:36.413Z,27.00
2023-08-19T08:40:41.413Z,27.30
2023-08-19T08:44:46.388Z,27.50
2023-08-19T08:48:49.234Z,27.70
2023-08-19T08:52:51.746Z,27.80
2023-08-19T08:56:56.528Z,28.00
2023-08-19T09:00:59.438Z,28.30
2023-08-19T09:05:04.338Z,28.50
2023-08-19T09:09:10.646Z,28.60
2023-08-19T09:13:20.838Z,28.80
2023-08-19T09:17:23.036Z,28.90
2023-08-19T09:21:25.833Z,28.90
2023-08-19T09:25:31.304Z,29.10
2023-08-19T09:29:36.145Z,29.30
2023-08-19T09:33:44.035Z,29.40
2023-08-19T09:37:46.230Z,29.30
2023-08-19T09:41:48.428Z,29.70
2023-08-19T09:45:56.589Z,29.90
2023-08-19T09:49:59.095Z,30.20
2023-08-19T09:54:10.014Z,30.30
2023-08-19T09:58:12.269Z,30.30
2023-08-19T10:02:17.239Z,30.40
2023-08-19T10:06:25.468Z,30.60
2023-08-19T10:10:30.616Z,30.40
2023-08-19T10:14:33.574Z,30.60
2023-08-19T10:18:41.633Z,30.90
2023-08-19T10:22:48.909Z,30.90
2023-08-19T10:26:51.798Z,30.90
2023-08-19T10:31:06.084Z,31.30
2023-08-19T10:35:11.890Z,31.50
2023-08-19T10:39:16.900Z,31.20
2023-08-19T10:43:19.544Z,31.10
2023-08-19T10:47:21.890Z,31.10
2023-08-19T10:51:49.248Z,31.40
2023-08-19T10:55:54.970Z,31.70
2023-08-19T10:59:58.741Z,31.70
2023-08-19T11:04:01.901Z,31.60
2023-08-19T11:08:10.295Z,31.50
2023-08-19T11:12:16.930Z,31.70
2023-08-19T11:16:19.227Z,31.90
2023-08-19T11:20:21.453Z,31.70
2023-08-19T11:24:30.675Z,31.70
2023-08-19T11:28:32.910Z,32.00
2023-08-19T11:32:36.378Z,31.80
2023-08-19T11:36:39.673Z,32.10
2023-08-19T11:40:45.323Z,32.20
2023-08-19T11:44:47.632Z,32.40
2023-08-19T11:48:49.835Z,32.30
2023-08-19T11:52:53.546Z,32.60
2023-08-19T11:57:01.373Z,32.30
2023-08-19T12:01:03.596Z,32.40
2023-08-19T12:05:06.358Z,32.30
2023-08-19T12:09:08.559Z,32.70
2023-08-19T12:13:20.727Z,32.60
2023-08-19T12:17:22.940Z,32.40
2023-08-19T12:21:25.535Z,32.50
2023-08-19T12:25:27.716Z,32.80
2023-08-19T12:29:32.516Z,33.00
2023-08-19T12:33:36.295Z,33.20
2023-08-19T12:37:38.460Z,33.30
2023-08-19T12:41:40.688Z,32.90
2023-08-19T12:45:45.800Z,33.10
2023-08-19T12:49:47.988Z,33.20
2023-08-19T12:53:50.140Z,33.20
2023-08-19T12:57:52.780Z,33.40
2023-08-19T13:01:57.551Z,33.30
2023-08-19T13:05:59.876Z,33.00
2023-08-19T13:10:02.074Z,33.30
2023-08-19T13:14:04.611Z,33.20
2023-08-19T13:18:09.745Z,33.50
2023-08-19T13:22:12.001Z,33.40
2023-08-19T13:26:14.152Z,33.00
2023-08-19T13:30:16.647Z,33.20
2023-08-19T13:34:21.438Z,33.10
2023-08-19T13:38:23.711Z,33.20
2023-08-19T13:42:25.900Z,33.10
2023-08-19T13:46:28.134Z,33.10
2023-08-19T13:50:33.010Z,33.10
2023-08-19T13:54:35.159Z,33.00
2023-08-19T13:58:37.350Z,32.80
2023-08-19T14:02:40.115Z,32.90
2023-08-19T14:06:44.960Z,33.10
2023-08-19T14:10:47.139Z,33.20
2023-08-19T14:14:49.345Z,33.20
2023-08-19T14:18:51.513Z,33.10
2023-08-19T14:22:56.265Z,32.90
2023-08-19T14:26:58.436Z,32.80
2023-08-19T14:31:00.632Z,32.60
2023-08-19T14:35:02.754Z,32.60
2023-08-19T14:39:07.595Z,32.60
2023-08-19T14:43:09.791Z,32.60
2023-08-19T14:47:11.966Z,32.70
2023-08-19T14:51:14.103Z,32.60
2023-08-19T14:55:19.085Z,32.50
2023-08-19T14:59:21.271Z,32.40
2023-08-19T15:03:23.680Z,32.50
